Morrison, Missouri
Current Conditions -  °F | °C
As of 7:53 PM on Friday 21 Nov 2014 (Local Time) from KJEF Reporting Station
Overcast Overcast  
Wind Chill: 41°   Ceiling: 2400
Heat Index: 46°   Visibility: 10mi
Dew Point: 31°   Wind: 10mph
Humidity: 56%   Direction: 140°SE
Pressure: 30.18"   Gusts: NA
Location:  38.67°N, 91.64°W
Report Text: KJEF 220153Z 14009KT 10SM OVC024 08/M01 A3018 RMK AO2 SLP214 T00781006
Loading
Personal Weather Stations






























Interactive Weather Map New forecast layout! Learn more

10-Day Weather Forecast

Advertisements
Track Severe Weather on mobile